createdAt,value
2018-01-19T00:00:08.409Z,10.43
2018-01-19T00:00:41.420Z,10.85
2018-01-19T00:01:15.102Z,10.15
2018-01-19T00:01:48.788Z,10.65
2018-01-19T00:02:22.461Z,10.45
2018-01-19T00:02:56.133Z,9.90
2018-01-19T00:03:30.566Z,9.55
2018-01-19T00:04:05.486Z,10.18
2018-01-19T00:04:39.158Z,9.77
2018-01-19T00:05:14.026Z,9.77
2018-01-19T00:05:47.719Z,10.10
2018-01-19T00:06:21.897Z,10.07
2018-01-19T00:06:55.590Z,10.10
2018-01-19T00:07:29.250Z,10.20
2018-01-19T00:08:03.069Z,9.95
2018-01-19T00:08:36.747Z,9.50
2018-01-19T00:09:10.804Z,10.30
2018-01-19T00:09:45.232Z,9.55
2018-01-19T00:10:19.871Z,10.85
2018-01-19T00:10:53.551Z,11.00
2018-01-19T00:11:27.250Z,10.15
2018-01-19T00:12:00.949Z,9.60
2018-01-19T00:12:34.726Z,11.38
2018-01-19T00:13:08.609Z,10.60
2018-01-19T00:13:42.039Z,10.45
2018-01-19T00:14:15.701Z,10.52
2018-01-19T00:14:49.382Z,11.07
2018-01-19T00:15:23.056Z,11.00
2018-01-19T00:15:56.733Z,11.20
2018-01-19T00:16:31.179Z,10.80
2018-01-19T00:17:04.893Z,10.73
2018-01-19T00:17:38.650Z,10.80
2018-01-19T00:18:12.130Z,11.70
2018-01-19T00:18:45.820Z,11.82
2018-01-19T00:19:19.510Z,10.85
2018-01-19T00:19:53.185Z,11.35
2018-01-19T00:20:26.846Z,10.85
2018-01-19T00:21:01.332Z,11.40
2018-01-19T00:21:34.994Z,11.75
2018-01-19T00:22:08.033Z,12.05
2018-01-19T00:22:43.805Z,12.75
2018-01-19T00:23:19.248Z,11.82
2018-01-19T00:23:52.909Z,11.85
2018-01-19T00:24:26.585Z,11.68
2018-01-19T00:25:01.019Z,11.20
2018-01-19T00:25:34.690Z,12.63
2018-01-19T00:26:08.358Z,12.32
2018-01-19T00:26:42.795Z,10.88
2018-01-19T00:27:16.506Z,11.35
2018-01-19T00:27:50.205Z,12.27
2018-01-19T00:28:23.877Z,11.73
2018-01-19T00:28:58.263Z,12.07
2018-01-19T00:29:31.923Z,12.20
2018-01-19T00:30:05.598Z,12.68
2018-01-19T00:30:40.598Z,11.60
2018-01-19T00:31:14.281Z,12.27
2018-01-19T00:31:47.953Z,12.07
2018-01-19T00:32:21.718Z,12.10
2018-01-19T00:32:56.215Z,11.40
2018-01-19T00:33:30.034Z,12.80
2018-01-19T00:34:03.829Z,12.48
2018-01-19T00:34:38.411Z,12.98
2018-01-19T00:35:12.917Z,12.07
2018-01-19T00:35:46.604Z,12.35
2018-01-19T00:36:20.272Z,12.70
2018-01-19T00:36:53.939Z,11.75
2018-01-19T00:37:27.641Z,13.18
2018-01-19T00:38:01.338Z,12.43
2018-01-19T00:38:35.022Z,12.43
2018-01-19T00:39:08.709Z,12.23
2018-01-19T00:39:42.449Z,12.57
2018-01-19T00:40:16.899Z,12.70
2018-01-19T00:40:50.614Z,13.25
2018-01-19T00:41:25.646Z,12.23
2018-01-19T00:41:59.373Z,12.45
2018-01-19T00:42:33.097Z,11.90
2018-01-19T00:43:06.764Z,12.37
2018-01-19T00:43:40.445Z,14.18
2018-01-19T00:44:14.886Z,13.15
2018-01-19T00:44:48.570Z,12.63
2018-01-19T00:45:22.228Z,12.98
2018-01-19T00:45:56.657Z,13.35
2018-01-19T00:46:30.313Z,13.57
2018-01-19T00:47:04.741Z,12.20
2018-01-19T00:47:38.435Z,13.40
2018-01-19T00:48:12.110Z,11.40
2018-01-19T00:48:46.545Z,11.93
2018-01-19T00:49:20.218Z,11.35
2018-01-19T00:49:53.929Z,12.35
2018-01-19T00:50:27.598Z,13.62
2018-01-19T00:51:01.310Z,13.52
2018-01-19T00:51:34.672Z,12.30
2018-01-19T00:52:09.097Z,12.90
2018-01-19T00:52:42.794Z,14.13
2018-01-19T00:53:16.473Z,11.88
2018-01-19T00:53:50.137Z,13.05
2018-01-19T00:54:24.569Z,13.35
2018-01-19T00:54:58.246Z,12.70
2018-01-19T00:55:31.908Z,13.70
2018-01-19T00:56:05.560Z,14.02
2018-01-19T00:56:39.226Z,13.15
2018-01-19T00:57:12.903Z,12.90
2018-01-19T00:57:46.269Z,12.65
2018-01-19T00:58:20.710Z,13.52
2018-01-19T00:58:54.369Z,14.13
2018-01-19T00:59:28.793Z,13.48
2018-01-19T01:00:02.466Z,13.40
2018-01-19T01:00:36.905Z,13.30
2018-01-19T01:01:10.561Z,13.98
2018-01-19T01:01:45.005Z,13.25
2018-01-19T01:02:18.666Z,13.73
2018-01-19T01:02:52.382Z,14.40
2018-01-19T01:03:26.040Z,14.35
2018-01-19T01:03:59.729Z,12.65
2018-01-19T01:04:34.192Z,15.13
2018-01-19T01:05:07.844Z,13.75
2018-01-19T01:05:41.508Z,14.23
2018-01-19T01:06:15.950Z,13.48
2018-01-19T01:06:49.655Z,14.45
2018-01-19T01:07:23.321Z,13.45
2018-01-19T01:07:57.015Z,15.65
2018-01-19T01:08:30.674Z,14.68
2018-01-19T01:09:05.762Z,15.45
2018-01-19T01:09:39.407Z,14.35
2018-01-19T01:10:13.074Z,15.52
2018-01-19T01:10:47.509Z,14.40
2018-01-19T01:11:21.164Z,14.73
2018-01-19T01:11:54.826Z,14.23
2018-01-19T01:12:28.502Z,14.27
2018-01-19T01:13:02.178Z,14.90
2018-01-19T01:13:35.841Z,14.95
2018-01-19T01:14:09.525Z,15.40
2018-01-19T01:14:43.206Z,13.62
2018-01-19T01:15:17.646Z,14.35
2018-01-19T01:15:51.298Z,13.68
2018-01-19T01:16:24.967Z,14.95
2018-01-19T01:16:58.634Z,15.45
2018-01-19T01:17:32.308Z,15.40
2018-01-19T01:18:06.005Z,16.40
2018-01-19T01:18:39.339Z,14.10
2018-01-19T01:19:13.005Z,15.77
2018-01-19T01:19:46.678Z,15.23
2018-01-19T01:20:20.351Z,15.80
2018-01-19T01:20:54.002Z,16.50
2018-01-19T01:21:28.438Z,15.02
2018-01-19T01:22:02.098Z,15.73
2018-01-19T01:22:36.525Z,15.15
2018-01-19T01:23:10.217Z,16.08
2018-01-19T01:23:43.882Z,15.95
2018-01-19T01:24:18.328Z,14.70
2018-01-19T01:24:51.989Z,16.12
2018-01-19T01:25:25.669Z,14.75
2018-01-19T01:25:59.354Z,16.73
2018-01-19T01:26:33.785Z,15.75
2018-01-19T01:27:07.451Z,15.80
2018-01-19T01:27:41.882Z,14.87
2018-01-19T01:28:15.577Z,15.77
2018-01-19T01:28:49.236Z,16.92
2018-01-19T01:29:23.677Z,17.20
2018-01-19T01:29:57.334Z,16.83
2018-01-19T01:30:30.990Z,16.25
2018-01-19T01:31:04.667Z,16.52
2018-01-19T01:31:38.335Z,16.12
2018-01-19T01:32:12.028Z,17.25
2018-01-19T01:32:45.698Z,16.60
2018-01-19T01:33:19.406Z,16.50
2018-01-19T01:33:53.079Z,16.73
2018-01-19T01:34:26.751Z,15.63
2018-01-19T01:35:01.189Z,16.30
2018-01-19T01:35:34.850Z,15.98
2018-01-19T01:36:09.270Z,16.55
2018-01-19T01:36:42.929Z,16.05
2018-01-19T01:37:16.586Z,16.42
2018-01-19T01:37:50.242Z,15.32
2018-01-19T01:38:23.942Z,16.20
2018-01-19T01:38:57.600Z,15.90
2018-01-19T01:39:32.029Z,15.73
2018-01-19T01:40:05.719Z,17.15
2018-01-19T01:40:39.387Z,16.45
2018-01-19T01:41:13.046Z,16.35
2018-01-19T01:41:46.716Z,15.80
2018-01-19T01:42:20.199Z,15.68
2018-01-19T01:42:53.861Z,15.82
2018-01-19T01:43:27.555Z,17.15
2018-01-19T01:44:01.233Z,17.40
2018-01-19T01:44:35.664Z,17.10
2018-01-19T01:45:09.338Z,15.90
2018-01-19T01:45:42.663Z,16.90
2018-01-19T01:46:16.339Z,16.27
2018-01-19T01:46:50.011Z,16.08
2018-01-19T01:47:23.678Z,15.88
2018-01-19T01:47:57.355Z,16.65
2018-01-19T01:48:31.812Z,16.08
2018-01-19T01:49:11.416Z,16.10
2018-01-19T01:49:45.076Z,16.25
2018-01-19T01:50:18.754Z,15.88
2018-01-19T01:50:52.422Z,16.00
2018-01-19T01:51:26.096Z,15.88
2018-01-19T01:51:59.766Z,16.98
2018-01-19T01:52:33.423Z,16.20
2018-01-19T01:53:07.151Z,16.17
2018-01-19T01:53:40.834Z,15.18
2018-01-19T01:54:14.497Z,16.62
2018-01-19T01:54:48.929Z,16.35
2018-01-19T01:55:22.593Z,15.93
2018-01-19T01:55:56.246Z,16.05
2018-01-19T01:56:29.915Z,16.27
2018-01-19T01:57:03.578Z,16.65
2018-01-19T01:57:38.006Z,15.32
2018-01-19T01:58:11.489Z,16.00
2018-01-19T01:58:45.187Z,14.82
2018-01-19T01:59:18.854Z,16.70
2018-01-19T01:59:53.283Z,15.35
2018-01-19T02:00:26.945Z,15.20
2018-01-19T02:01:01.379Z,13.95
2018-01-19T02:01:35.052Z,14.95
2018-01-19T02:02:09.683Z,15.50
2018-01-19T02:02:43.346Z,15.77
2018-01-19T02:03:17.783Z,14.43
2018-01-19T02:03:51.482Z,14.55
2018-01-19T02:04:24.826Z,15.57
2018-01-19T02:04:59.260Z,14.70
2018-01-19T02:05:32.917Z,14.85
2018-01-19T02:06:06.582Z,14.57
2018-01-19T02:06:40.245Z,14.10
2018-01-19T02:07:13.919Z,15.35
2018-01-19T02:07:47.646Z,14.90
2018-01-19T02:08:21.312Z,14.27
2018-01-19T02:08:54.989Z,14.05
2018-01-19T02:09:28.645Z,14.80
2018-01-19T02:10:03.088Z,14.57
2018-01-19T02:10:36.741Z,14.18
2018-01-19T02:11:11.166Z,14.77
2018-01-19T02:11:44.825Z,14.18
2018-01-19T02:12:19.249Z,14.15
2018-01-19T02:12:53.681Z,14.68
2018-01-19T02:13:27.341Z,15.75
2018-01-19T02:14:01.838Z,15.02
2018-01-19T02:14:36.262Z,14.50
2018-01-19T02:15:09.917Z,15.90
2018-01-19T02:15:43.573Z,14.20
2018-01-19T02:16:17.251Z,15.65
2018-01-19T02:16:50.913Z,15.18
2018-01-19T02:17:25.348Z,14.65
2018-01-19T02:17:59.010Z,14.25
2018-01-19T02:18:33.450Z,14.70
2018-01-19T02:19:07.140Z,14.35
2018-01-19T02:19:40.487Z,15.25
2018-01-19T02:20:14.272Z,14.90
2018-01-19T02:20:48.702Z,14.18
2018-01-19T02:21:22.366Z,14.35
2018-01-19T02:21:56.795Z,16.12
2018-01-19T02:22:30.451Z,16.15
2018-01-19T02:23:05.610Z,16.00
2018-01-19T02:23:39.286Z,16.10
2018-01-19T02:24:13.765Z,16.42
2018-01-19T02:24:47.427Z,17.00
2018-01-19T02:25:21.087Z,17.33
2018-01-19T02:25:54.766Z,16.87
2018-01-19T02:26:29.200Z,16.90
2018-01-19T02:27:02.853Z,17.75
2018-01-19T02:27:37.288Z,16.15
2018-01-19T02:28:10.954Z,16.60
2018-01-19T02:28:45.389Z,17.15
2018-01-19T02:29:19.150Z,17.10
2018-01-19T02:29:53.599Z,17.62
2018-01-19T02:30:27.294Z,18.67
2018-01-19T02:31:00.990Z,17.75
2018-01-19T02:31:34.659Z,16.92
2018-01-19T02:32:08.328Z,17.05
2018-01-19T02:32:41.999Z,19.77
2018-01-19T02:33:16.423Z,19.62
2018-01-19T02:33:50.107Z,19.05
2018-01-19T02:34:24.241Z,18.25
2018-01-19T02:34:57.922Z,20.37
2018-01-19T02:35:31.585Z,19.73
2018-01-19T02:36:06.033Z,21.10
2018-01-19T02:36:39.691Z,20.88
2018-01-19T02:37:13.355Z,20.08
2018-01-19T02:37:47.810Z,20.00
2018-01-19T02:38:21.480Z,18.95
2018-01-19T02:38:55.161Z,19.70
2018-01-19T02:39:28.854Z,18.80
2018-01-19T02:40:02.524Z,18.67
2018-01-19T02:40:36.954Z,19.33
2018-01-19T02:41:10.631Z,17.60
2018-01-19T02:41:44.874Z,16.85
2018-01-19T02:42:18.359Z,17.92
2018-01-19T02:42:52.021Z,18.55
2018-01-19T02:43:25.697Z,17.50
2018-01-19T02:44:00.146Z,17.75
2018-01-19T02:44:33.833Z,16.77
2018-01-19T02:45:07.498Z,18.27
2018-01-19T02:45:41.178Z,18.10
2018-01-19T02:46:15.613Z,17.17
2018-01-19T02:46:49.295Z,17.48
2018-01-19T02:47:22.970Z,15.57
2018-01-19T02:47:57.402Z,15.68
2018-01-19T02:48:31.076Z,16.92
2018-01-19T02:49:04.750Z,16.95
2018-01-19T02:49:39.194Z,16.20
2018-01-19T02:50:12.852Z,15.35
2018-01-19T02:50:47.276Z,15.38
2018-01-19T02:51:20.941Z,16.12
2018-01-19T02:51:55.392Z,16.50
2018-01-19T02:52:29.080Z,15.10
2018-01-19T02:53:02.746Z,15.82
2018-01-19T02:53:36.410Z,16.52
2018-01-19T02:54:10.826Z,15.20
2018-01-19T02:54:45.296Z,14.98
2018-01-19T02:55:18.962Z,14.93
2018-01-19T02:55:52.613Z,15.82
2018-01-19T02:56:27.035Z,13.82
2018-01-19T02:57:00.710Z,14.57
2018-01-19T02:57:35.146Z,14.98
2018-01-19T02:58:08.807Z,14.00
2018-01-19T02:58:43.237Z,15.05
2018-01-19T02:59:16.929Z,14.15
2018-01-19T02:59:50.627Z,13.73
2018-01-19T03:00:24.296Z,15.80
2018-01-19T03:00:57.958Z,14.27
2018-01-19T03:01:31.622Z,14.60
2018-01-19T03:02:05.282Z,13.82
2018-01-19T03:02:38.939Z,13.73
2018-01-19T03:03:13.365Z,15.60
2018-01-19T03:03:47.035Z,14.23
2018-01-19T03:04:21.469Z,13.25
2018-01-19T03:04:55.129Z,14.05
2018-01-19T03:05:29.556Z,13.40
2018-01-19T03:06:03.222Z,13.95
2018-01-19T03:06:37.652Z,14.38
2018-01-19T03:07:11.313Z,13.10
2018-01-19T03:07:45.759Z,13.13
2018-01-19T03:08:19.426Z,12.82
2018-01-19T03:08:53.299Z,13.68
2018-01-19T03:09:27.726Z,13.10
2018-01-19T03:10:01.415Z,12.98
2018-01-19T03:10:35.845Z,13.13
2018-01-19T03:11:09.513Z,13.32
2018-01-19T03:11:43.955Z,12.82
2018-01-19T03:12:17.624Z,12.35
2018-01-19T03:12:51.286Z,13.25
2018-01-19T03:13:24.954Z,12.93
2018-01-19T03:13:58.620Z,12.82
2018-01-19T03:14:32.278Z,13.65
2018-01-19T03:15:05.973Z,14.15
2018-01-19T03:15:39.643Z,13.70
2018-01-19T03:16:14.065Z,13.75
2018-01-19T03:16:47.749Z,12.85
2018-01-19T03:17:21.418Z,13.35
2018-01-19T03:17:55.861Z,12.18
2018-01-19T03:18:29.526Z,12.85
2018-01-19T03:19:04.137Z,12.77
2018-01-19T03:19:38.566Z,14.18
2018-01-19T03:20:12.048Z,13.95
2018-01-19T03:20:45.704Z,13.32
2018-01-19T03:21:19.026Z,13.52
2018-01-19T03:21:52.681Z,12.82
2018-01-19T03:22:27.122Z,13.23
2018-01-19T03:23:00.778Z,13.40
2018-01-19T03:23:35.210Z,12.85
2018-01-19T03:24:08.875Z,11.38
2018-01-19T03:24:43.312Z,12.57
2018-01-19T03:25:16.993Z,12.30
2018-01-19T03:25:50.659Z,11.85
2018-01-19T03:26:25.100Z,11.55
2018-01-19T03:26:58.789Z,12.25
2018-01-19T03:27:32.462Z,12.43
2018-01-19T03:28:06.122Z,12.20
2018-01-19T03:28:39.794Z,11.32
2018-01-19T03:29:13.455Z,11.68
2018-01-19T03:29:47.133Z,11.95
2018-01-19T03:30:20.822Z,12.32
2018-01-19T03:30:54.503Z,12.98
2018-01-19T03:31:28.164Z,12.85
2018-01-19T03:32:02.598Z,13.27
2018-01-19T03:32:36.270Z,12.55
2018-01-19T03:33:10.705Z,13.02
2018-01-19T03:33:44.382Z,13.23
2018-01-19T03:34:18.043Z,13.82
2018-01-19T03:34:52.461Z,13.68
2018-01-19T03:35:26.143Z,14.40
2018-01-19T03:35:59.809Z,14.60
2018-01-19T03:36:33.472Z,15.55
2018-01-19T03:37:07.134Z,14.57
2018-01-19T03:37:41.559Z,16.45
2018-01-19T03:38:15.270Z,14.68
2018-01-19T03:38:48.593Z,14.85
2018-01-19T03:39:22.256Z,14.93
2018-01-19T03:39:55.916Z,14.77
2018-01-19T03:40:29.605Z,13.70
2018-01-19T03:41:03.338Z,14.30
2018-01-19T03:41:37.033Z,15.88
2018-01-19T03:42:10.704Z,15.45
2018-01-19T03:42:44.357Z,15.95
2018-01-19T03:43:18.015Z,13.73
2018-01-19T03:43:52.445Z,14.43
2018-01-19T03:44:26.104Z,14.98
2018-01-19T03:44:59.764Z,15.02
2018-01-19T03:45:33.458Z,15.60
2018-01-19T03:46:07.123Z,16.30
2018-01-19T03:46:40.785Z,14.35
2018-01-19T03:47:14.441Z,15.05
2018-01-19T03:47:48.098Z,16.60
2018-01-19T03:48:21.760Z,16.62
2018-01-19T03:48:55.246Z,15.85
2018-01-19T03:49:28.902Z,17.17
2018-01-19T03:50:02.577Z,16.27
2018-01-19T03:50:36.283Z,16.12
2018-01-19T03:51:09.942Z,14.80
2018-01-19T03:51:43.606Z,17.05
2018-01-19T03:52:17.320Z,15.18
2018-01-19T03:52:50.998Z,15.88
2018-01-19T03:53:24.668Z,16.33
2018-01-19T03:53:58.348Z,15.13
2018-01-19T03:54:32.016Z,16.37
2018-01-19T03:55:06.450Z,15.23
2018-01-19T03:55:39.972Z,15.85
2018-01-19T03:56:13.657Z,16.10
2018-01-19T03:56:47.326Z,17.70
2018-01-19T03:57:20.990Z,17.12
2018-01-19T03:57:55.436Z,17.00
2018-01-19T03:58:28.926Z,16.25
2018-01-19T03:59:02.625Z,15.05
2018-01-19T03:59:36.299Z,16.23
2018-01-19T04:00:09.322Z,16.20
2018-01-19T04:00:43.780Z,17.50
2018-01-19T04:01:17.434Z,16.60
2018-01-19T04:01:51.854Z,15.35
2018-01-19T04:02:25.516Z,16.35
2018-01-19T04:02:59.947Z,16.15
2018-01-19T04:03:33.601Z,14.55
2018-01-19T04:04:07.263Z,14.38
2018-01-19T04:04:40.938Z,14.35
2018-01-19T04:05:14.596Z,15.32
2018-01-19T04:05:48.294Z,16.37
2018-01-19T04:06:21.967Z,16.50
2018-01-19T04:06:56.120Z,16.15
2018-01-19T04:07:29.777Z,13.35
2018-01-19T04:08:03.436Z,13.62
2018-01-19T04:08:37.873Z,12.90
2018-01-19T04:09:11.650Z,13.35
2018-01-19T04:09:46.093Z,13.90
2018-01-19T04:10:19.764Z,16.45
2018-01-19T04:10:53.476Z,13.98
2018-01-19T04:11:27.141Z,14.38
2018-01-19T04:12:00.810Z,14.07
2018-01-19T04:12:35.241Z,15.50
2018-01-19T04:13:08.912Z,15.65
2018-01-19T04:13:43.358Z,15.45
2018-01-19T04:14:17.024Z,14.35
2018-01-19T04:14:50.693Z,14.55
2018-01-19T04:15:25.553Z,13.73
2018-01-19T04:15:59.237Z,13.48
2018-01-19T04:16:32.918Z,12.65
2018-01-19T04:17:06.586Z,11.12
2018-01-19T04:17:41.043Z,12.37
2018-01-19T04:18:14.714Z,12.27
2018-01-19T04:18:48.200Z,13.30
2018-01-19T04:19:21.852Z,13.35
2018-01-19T04:19:56.310Z,13.60
2018-01-19T04:20:29.971Z,13.20
2018-01-19T04:21:03.654Z,14.13
2018-01-19T04:21:37.324Z,16.02
2018-01-19T04:22:11.760Z,17.17
2018-01-19T04:22:45.446Z,14.65
2018-01-19T04:23:18.935Z,14.77
2018-01-19T04:23:52.605Z,13.77
2018-01-19T04:24:26.276Z,13.43
2018-01-19T04:24:59.939Z,15.32
2018-01-19T04:25:33.610Z,14.02
2018-01-19T04:26:07.302Z,15.20
2018-01-19T04:26:40.787Z,16.08
2018-01-19T04:27:14.652Z,15.50
2018-01-19T04:27:48.310Z,14.93
2018-01-19T04:28:22.238Z,16.20
2018-01-19T04:28:55.889Z,15.60
2018-01-19T04:29:29.392Z,14.55
2018-01-19T04:30:03.506Z,15.07
2018-01-19T04:30:37.161Z,16.58
2018-01-19T04:31:10.843Z,17.95
2018-01-19T04:31:44.515Z,15.88
2018-01-19T04:32:18.188Z,16.42
2018-01-19T04:32:51.854Z,17.02
2018-01-19T04:33:26.282Z,15.75
2018-01-19T04:33:59.958Z,15.65
2018-01-19T04:34:33.435Z,16.83
2018-01-19T04:35:07.125Z,15.45
2018-01-19T04:35:41.561Z,15.48
2018-01-19T04:36:15.246Z,14.63
2018-01-19T04:36:48.912Z,15.30
2018-01-19T04:37:22.565Z,14.75
2018-01-19T04:37:56.222Z,14.40
2018-01-19T04:38:29.883Z,14.15
2018-01-19T04:39:03.351Z,15.05
2018-01-19T04:39:37.597Z,13.82
2018-01-19T04:40:11.071Z,15.65
2018-01-19T04:40:44.546Z,16.48
2018-01-19T04:41:18.251Z,16.10
2018-01-19T04:41:51.916Z,14.48
2018-01-19T04:42:26.357Z,15.93
2018-01-19T04:43:00.036Z,16.40
2018-01-19T04:43:33.697Z,16.10
2018-01-19T04:44:08.135Z,14.98
2018-01-19T04:44:41.789Z,15.70
2018-01-19T04:45:16.210Z,16.80
2018-01-19T04:45:49.877Z,16.55
2018-01-19T04:46:24.357Z,15.68
2018-01-19T04:46:58.018Z,16.17
2018-01-19T04:47:31.680Z,16.87
2018-01-19T04:48:05.368Z,16.15
2018-01-19T04:48:39.040Z,15.43
2018-01-19T04:49:12.370Z,15.50
2018-01-19T04:49:46.172Z,15.48
2018-01-19T04:50:21.078Z,14.98
2018-01-19T04:50:54.742Z,16.08
2018-01-19T04:51:29.194Z,16.25
2018-01-19T04:52:02.903Z,15.50
2018-01-19T04:52:36.761Z,14.45
2018-01-19T04:53:10.421Z,14.70
2018-01-19T04:53:44.532Z,14.73
2018-01-19T04:54:18.191Z,15.27
2018-01-19T04:54:51.863Z,13.57
2018-01-19T04:55:25.515Z,15.05
2018-01-19T04:55:59.001Z,13.40
2018-01-19T04:56:32.677Z,14.80
2018-01-19T04:57:06.154Z,14.93
2018-01-19T04:57:39.641Z,14.10
2018-01-19T04:58:13.110Z,13.55
2018-01-19T04:58:47.538Z,14.13
2018-01-19T04:59:21.210Z,14.18
2018-01-19T04:59:55.645Z,14.05
2018-01-19T05:00:29.306Z,15.77
2018-01-19T05:01:03.745Z,14.05
2018-01-19T05:01:37.434Z,14.73
2018-01-19T05:02:11.099Z,14.20
2018-01-19T05:02:44.782Z,13.85
2018-01-19T05:03:19.211Z,12.80
2018-01-19T05:03:52.868Z,15.20
2018-01-19T05:04:26.516Z,13.48
2018-01-19T05:05:00.185Z,14.18
2018-01-19T05:05:33.843Z,14.07
2018-01-19T05:06:08.293Z,13.88
2018-01-19T05:06:42.165Z,13.10
2018-01-19T05:07:15.823Z,13.60
2018-01-19T05:07:49.485Z,13.50
2018-01-19T05:08:23.149Z,12.18
2018-01-19T05:08:56.834Z,12.45
2018-01-19T05:09:30.489Z,13.55
2018-01-19T05:10:04.906Z,13.77
2018-01-19T05:10:39.339Z,12.68
2018-01-19T05:11:12.994Z,13.00
2018-01-19T05:11:47.454Z,14.15
2018-01-19T05:12:21.149Z,13.40
2018-01-19T05:12:54.816Z,13.38
2018-01-19T05:13:28.494Z,14.00
2018-01-19T05:14:02.161Z,13.62
2018-01-19T05:14:36.607Z,12.85
2018-01-19T05:15:10.268Z,12.68
2018-01-19T05:15:43.945Z,12.20
2018-01-19T05:16:18.387Z,15.10
2018-01-19T05:16:52.078Z,13.90
2018-01-19T05:17:25.736Z,12.88
2018-01-19T05:18:00.175Z,14.32
2018-01-19T05:18:33.837Z,13.13
2018-01-19T05:19:08.270Z,14.15
2018-01-19T05:19:41.931Z,14.20
2018-01-19T05:20:16.367Z,13.43
2018-01-19T05:20:50.021Z,13.60
2018-01-19T05:21:24.465Z,12.93
2018-01-19T05:21:57.830Z,14.13
2018-01-19T05:22:31.809Z,13.38
2018-01-19T05:23:06.253Z,15.05
2018-01-19T05:23:39.914Z,13.45
2018-01-19T05:24:14.341Z,12.93
2018-01-19T05:24:48.034Z,14.25
2018-01-19T05:25:21.697Z,13.02
2018-01-19T05:25:56.139Z,13.23
2018-01-19T05:26:29.816Z,14.27
2018-01-19T05:27:03.550Z,13.38
2018-01-19T05:27:37.213Z,14.30
2018-01-19T05:28:10.902Z,13.70
2018-01-19T05:28:44.574Z,15.30
2018-01-19T05:29:18.265Z,13.85
2018-01-19T05:29:51.922Z,14.35
2018-01-19T05:30:25.577Z,13.90
2018-01-19T05:30:59.239Z,14.68
2018-01-19T05:31:32.906Z,14.52
2018-01-19T05:32:07.371Z,13.30
2018-01-19T05:32:40.874Z,14.55
2018-01-19T05:33:15.313Z,13.88
2018-01-19T05:33:48.975Z,13.77
2018-01-19T05:34:22.635Z,13.57
2018-01-19T05:34:56.308Z,13.40
2018-01-19T05:35:30.045Z,14.38
2018-01-19T05:36:03.707Z,13.45
2018-01-19T05:36:37.376Z,13.40
2018-01-19T05:37:11.085Z,13.80
2018-01-19T05:37:44.419Z,13.57
2018-01-19T05:38:18.074Z,14.60
2018-01-19T05:38:51.209Z,13.68
2018-01-19T05:39:24.876Z,14.50
2018-01-19T05:39:58.529Z,14.93
2018-01-19T05:40:32.194Z,13.07
2018-01-19T05:41:05.856Z,13.68
2018-01-19T05:41:39.513Z,14.00
2018-01-19T05:42:13.974Z,14.40
2018-01-19T05:42:47.642Z,12.82
2018-01-19T05:43:21.304Z,14.60
2018-01-19T05:43:55.734Z,13.88
2018-01-19T05:44:29.397Z,14.30
2018-01-19T05:45:03.240Z,13.70
2018-01-19T05:45:36.906Z,13.70
2018-01-19T05:46:10.567Z,14.13
2018-01-19T05:46:45.001Z,14.07
2018-01-19T05:47:18.695Z,14.35
2018-01-19T05:47:52.042Z,12.80
2018-01-19T05:48:26.485Z,13.27
2018-01-19T05:49:00.177Z,15.30
2018-01-19T05:49:33.837Z,13.57
2018-01-19T05:50:07.938Z,13.05
2018-01-19T05:50:42.371Z,13.70
2018-01-19T05:51:16.045Z,13.85
2018-01-19T05:51:49.713Z,14.13
2018-01-19T05:52:23.391Z,13.77
2018-01-19T05:52:57.050Z,14.25
2018-01-19T05:53:30.713Z,13.38
2018-01-19T05:54:04.369Z,14.07
2018-01-19T05:54:38.017Z,13.65
2018-01-19T05:55:11.692Z,14.23
2018-01-19T05:55:45.396Z,13.25
2018-01-19T05:56:20.002Z,14.38
2018-01-19T05:56:53.681Z,14.20
2018-01-19T05:57:27.378Z,13.15
2018-01-19T05:58:01.066Z,13.35
2018-01-19T05:58:34.742Z,13.30
2018-01-19T05:59:08.397Z,14.00
2018-01-19T05:59:42.834Z,12.57
2018-01-19T06:00:16.499Z,12.45
2018-01-19T06:00:51.015Z,12.70
2018-01-19T06:01:25.438Z,13.65
2018-01-19T06:01:59.126Z,13.15
2018-01-19T06:02:32.824Z,13.10
2018-01-19T06:03:06.478Z,13.55
2018-01-19T06:03:40.130Z,13.23
2018-01-19T06:04:13.791Z,14.05
2018-01-19T06:04:47.446Z,13.98
2018-01-19T06:05:21.938Z,13.05
2018-01-19T06:05:55.746Z,14.30
2018-01-19T06:06:29.405Z,13.18
2018-01-19T06:07:03.069Z,13.18
2018-01-19T06:07:36.774Z,14.13
2018-01-19T06:08:10.446Z,12.73
2018-01-19T06:08:44.113Z,14.82
2018-01-19T06:09:18.554Z,12.80
2018-01-19T06:09:52.217Z,14.40
2018-01-19T06:10:25.882Z,13.55
2018-01-19T06:10:59.552Z,13.80
2018-01-19T06:11:33.248Z,14.00
2018-01-19T06:12:07.082Z,12.73
2018-01-19T06:12:40.770Z,14.02
2018-01-19T06:13:14.427Z,13.73
2018-01-19T06:13:48.081Z,13.48
2018-01-19T06:14:21.746Z,13.60
2018-01-19T06:14:55.417Z,14.93
2018-01-19T06:15:29.850Z,13.88
2018-01-19T06:16:03.521Z,14.15
2018-01-19T06:16:37.185Z,14.85
2018-01-19T06:17:10.843Z,12.63
2018-01-19T06:17:44.590Z,13.62
2018-01-19T06:18:18.234Z,14.93
2018-01-19T06:18:51.894Z,14.73
2018-01-19T06:19:25.562Z,13.70
2018-01-19T06:19:59.240Z,14.15
2018-01-19T06:20:33.678Z,14.35
2018-01-19T06:21:07.345Z,14.27
2018-01-19T06:21:41.030Z,13.88
2018-01-19T06:22:14.705Z,14.20
2018-01-19T06:22:49.159Z,16.00
2018-01-19T06:23:22.830Z,14.38
2018-01-19T06:23:56.485Z,14.00
2018-01-19T06:24:30.926Z,14.07
2018-01-19T06:25:04.270Z,15.05
2018-01-19T06:25:37.927Z,15.05
2018-01-19T06:26:11.609Z,13.70
2018-01-19T06:26:45.267Z,15.10
2018-01-19T06:27:18.929Z,15.05
2018-01-19T06:27:52.636Z,14.35
2018-01-19T06:28:27.069Z,15.13
2018-01-19T06:29:00.737Z,14.65
2018-01-19T06:29:35.334Z,15.60
2018-01-19T06:30:09.775Z,16.10
2018-01-19T06:30:43.451Z,15.10
2018-01-19T06:31:17.133Z,15.75
2018-01-19T06:31:51.574Z,16.45
2018-01-19T06:32:24.893Z,15.25
2018-01-19T06:32:58.592Z,16.33
2018-01-19T06:33:32.258Z,15.60
2018-01-19T06:34:05.918Z,13.90
2018-01-19T06:34:39.584Z,15.73
2018-01-19T06:35:13.274Z,14.75
2018-01-19T06:35:46.949Z,14.95
2018-01-19T06:36:21.397Z,14.30
2018-01-19T06:36:55.062Z,15.35
2018-01-19T06:37:28.728Z,15.60
2018-01-19T06:38:02.438Z,15.70
2018-01-19T06:38:36.098Z,16.10
2018-01-19T06:39:09.758Z,15.20
2018-01-19T06:39:43.423Z,14.73
2018-01-19T06:40:17.101Z,15.38
2018-01-19T06:40:50.789Z,15.85
2018-01-19T06:41:24.487Z,15.63
2018-01-19T06:41:58.155Z,15.25
2018-01-19T06:42:32.394Z,16.17
2018-01-19T06:43:06.097Z,15.80
2018-01-19T06:43:39.773Z,15.48
2018-01-19T06:44:13.436Z,14.90
2018-01-19T06:44:47.094Z,14.65
2018-01-19T06:45:21.533Z,15.27
2018-01-19T06:45:55.963Z,15.23
2018-01-19T06:46:29.633Z,14.90
2018-01-19T06:47:03.291Z,15.00
2018-01-19T06:47:36.946Z,14.35
2018-01-19T06:48:10.634Z,14.23
2018-01-19T06:48:44.310Z,15.45
2018-01-19T06:49:17.798Z,15.45
2018-01-19T06:49:51.286Z,15.68
2018-01-19T06:50:24.965Z,15.52
2018-01-19T06:50:58.637Z,15.13
2018-01-19T06:51:32.318Z,17.75
2018-01-19T06:52:06.765Z,17.33
2018-01-19T06:52:40.422Z,15.77
2018-01-19T06:53:14.887Z,15.07
2018-01-19T06:53:48.543Z,14.40
2018-01-19T06:54:22.207Z,14.95
2018-01-19T06:54:56.643Z,14.63
2018-01-19T06:55:30.134Z,16.05
2018-01-19T06:56:03.785Z,13.77
2018-01-19T06:56:38.047Z,14.98
2018-01-19T06:57:11.715Z,14.30
2018-01-19T06:57:46.210Z,15.20
2018-01-19T06:58:19.906Z,13.40
2018-01-19T06:58:53.394Z,13.15
2018-01-19T06:59:26.886Z,14.25
2018-01-19T07:00:00.546Z,13.25
2018-01-19T07:00:34.226Z,12.65
2018-01-19T07:01:07.900Z,13.82
2018-01-19T07:01:41.574Z,13.75
2018-01-19T07:02:15.054Z,12.77
2018-01-19T07:02:48.549Z,13.80
2018-01-19T07:03:22.248Z,14.77
2018-01-19T07:03:56.811Z,12.80
2018-01-19T07:04:30.470Z,13.90
2018-01-19T07:05:04.182Z,13.65
2018-01-19T07:05:37.849Z,13.50
2018-01-19T07:06:11.523Z,13.02
2018-01-19T07:06:45.956Z,13.20
2018-01-19T07:07:19.626Z,13.32
2018-01-19T07:07:54.096Z,13.52
2018-01-19T07:08:27.959Z,13.13
2018-01-19T07:09:01.638Z,11.73
2018-01-19T07:09:35.822Z,13.38
2018-01-19T07:10:09.502Z,12.40
2018-01-19T07:10:43.973Z,13.82
2018-01-19T07:11:17.638Z,14.25
2018-01-19T07:11:51.322Z,13.20
2018-01-19T07:12:24.985Z,14.73
2018-01-19T07:12:59.410Z,13.65
2018-01-19T07:13:33.110Z,14.27
2018-01-19T07:14:06.797Z,13.52
2018-01-19T07:14:40.454Z,14.50
2018-01-19T07:15:14.887Z,14.27
2018-01-19T07:15:48.565Z,14.43